Terminal Aerodrome Forecast
Issued by NWS Sioux Falls, SD

Home | Current Version | Previous Version | Text Only | Print | Product List | Glossary On
Versions: 1 2 3 4 5 6 7 8 9 10 11 12 13 14 15 16 17 18 19 20 21 22 23 24
000
FTUS43 KFSD 251736
TAFHON
TAF
KHON 251736Z 2518/2618 36010KT P6SM OVC012
     FM252200 35011KT P6SM -SHRA BKN015 OVC020
     FM260200 35008KT 6SM -SHRA SCT008 OVC012
     FM261000 32007KT 4SM BR OVC008
     FM261700 31006KT P6SM BKN015=

USA.gov is the U.S. government's official web portal to all federal, state and local government web resources and services.